sensor_id;sensor_type;location;lat;lon;timestamp;P1;durP1;ratioP1;P2;durP2;ratioP2
56171;SDS011;42052;41.634;-0.946;2023-02-08T06:20:37;1.38;;;0.80;;
56171;SDS011;42052;41.634;-0.946;2023-02-08T06:23:24;1.55;;;0.75;;
56171;SDS011;42052;41.634;-0.946;2023-02-08T06:26:10;2.35;;;0.75;;
56171;SDS011;42052;41.634;-0.946;2023-02-08T06:28:57;1.35;;;0.88;;
56171;SDS011;42052;41.634;-0.946;2023-02-08T06:31:44;1.05;;;0.80;;
56171;SDS011;42052;41.634;-0.946;2023-02-08T06:34:30;1.67;;;0.80;;
56171;SDS011;42052;41.634;-0.946;2023-02-08T06:37:17;1.80;;;1.20;;
56171;SDS011;42052;41.634;-0.946;2023-02-08T06:40:03;1.90;;;0.90;;
56171;SDS011;42052;41.634;-0.946;2023-02-08T06:42:50;1.73;;;0.95;;
56171;SDS011;42052;41.634;-0.946;2023-02-08T06:45:36;2.40;;;1.00;;
56171;SDS011;42052;41.634;-0.946;2023-02-08T06:48:23;3.90;;;1.20;;
56171;SDS011;42052;41.634;-0.946;2023-02-08T06:51:09;1.67;;;1.00;;
56171;SDS011;42052;41.634;-0.946;2023-02-08T06:53:55;1.98;;;1.00;;
56171;SDS011;42052;41.634;-0.946;2023-02-08T06:56:41;1.90;;;1.00;;
56171;SDS011;42052;41.634;-0.946;2023-02-08T06:59:28;1.65;;;1.00;;
56171;SDS011;42052;41.634;-0.946;2023-02-08T07:02:15;1.70;;;0.93;;
56171;SDS011;42052;41.634;-0.946;2023-02-08T07:05:02;1.85;;;0.95;;
56171;SDS011;42052;41.634;-0.946;2023-02-08T07:07:49;1.50;;;1.10;;
56171;SDS011;42052;41.634;-0.946;2023-02-08T07:10:36;1.73;;;0.90;;
56171;SDS011;42052;41.634;-0.946;2023-02-08T07:13:24;2.17;;;1.10;;
56171;SDS011;42052;41.634;-0.946;2023-02-08T07:16:10;1.30;;;1.00;;
56171;SDS011;42052;41.634;-0.946;2023-02-08T07:18:56;1.35;;;0.82;;
56171;SDS011;42052;41.634;-0.946;2023-02-08T07:21:43;1.25;;;0.88;;
56171;SDS011;42052;41.634;-0.946;2023-02-08T07:24:29;1.60;;;1.00;;
56171;SDS011;42052;41.634;-0.946;2023-02-08T07:27:15;1.63;;;0.95;;
56171;SDS011;42052;41.634;-0.946;2023-02-08T07:30:02;2.10;;;0.85;;
56171;SDS011;42052;41.634;-0.946;2023-02-08T07:32:49;1.67;;;1.00;;
56171;SDS011;42052;41.634;-0.946;2023-02-08T07:35:35;1.08;;;0.90;;
56171;SDS011;42052;41.634;-0.946;2023-02-08T07:38:21;1.98;;;1.10;;
56171;SDS011;42052;41.634;-0.946;2023-02-08T07:41:09;2.75;;;0.98;;
56171;SDS011;42052;41.634;-0.946;2023-02-08T07:43:58;1.35;;;1.25;;
56171;SDS011;42052;41.634;-0.946;2023-02-08T07:46:44;1.70;;;0.98;;
56171;SDS011;42052;41.634;-0.946;2023-02-08T07:49:31;1.90;;;1.20;;
56171;SDS011;42052;41.634;-0.946;2023-02-08T07:52:17;1.83;;;1.10;;
56171;SDS011;42052;41.634;-0.946;2023-02-08T07:55:03;1.35;;;1.15;;
56171;SDS011;42052;41.634;-0.946;2023-02-08T07:57:50;1.08;;;0.98;;
56171;SDS011;42052;41.634;-0.946;2023-02-08T08:00:36;1.10;;;1.00;;
56171;SDS011;42052;41.634;-0.946;2023-02-08T08:03:22;1.52;;;1.15;;
56171;SDS011;42052;41.634;-0.946;2023-02-08T08:06:09;1.63;;;1.20;;
56171;SDS011;42052;41.634;-0.946;2023-02-08T08:08:55;1.77;;;1.00;;
56171;SDS011;42052;41.634;-0.946;2023-02-08T08:11:41;2.60;;;1.10;;
56171;SDS011;42052;41.634;-0.946;2023-02-08T08:14:27;1.45;;;1.00;;
56171;SDS011;42052;41.634;-0.946;2023-02-08T08:17:14;1.33;;;1.23;;
56171;SDS011;42052;41.634;-0.946;2023-02-08T08:20:00;1.77;;;1.10;;
56171;SDS011;42052;41.634;-0.946;2023-02-08T08:22:46;1.90;;;1.10;;
56171;SDS011;42052;41.634;-0.946;2023-02-08T08:25:32;1.88;;;1.20;;
56171;SDS011;42052;41.634;-0.946;2023-02-08T08:28:18;2.42;;;1.30;;
56171;SDS011;42052;41.634;-0.946;2023-02-08T08:31:09;1.63;;;1.20;;
56171;SDS011;42052;41.634;-0.946;2023-02-08T08:33:56;1.85;;;1.30;;
56171;SDS011;42052;41.634;-0.946;2023-02-08T08:36:42;3.60;;;1.30;;
56171;SDS011;42052;41.634;-0.946;2023-02-08T08:39:29;1.83;;;1.25;;
56171;SDS011;42052;41.634;-0.946;2023-02-08T08:42:15;1.73;;;1.13;;
56171;SDS011;42052;41.634;-0.946;2023-02-08T08:45:02;1.75;;;1.15;;
56171;SDS011;42052;41.634;-0.946;2023-02-08T08:47:48;2.30;;;1.40;;
56171;SDS011;42052;41.634;-0.946;2023-02-08T08:50:35;1.58;;;1.30;;
56171;SDS011;42052;41.634;-0.946;2023-02-08T08:53:21;1.88;;;1.30;;
56171;SDS011;42052;41.634;-0.946;2023-02-08T08:56:08;2.33;;;1.10;;
56171;SDS011;42052;41.634;-0.946;2023-02-08T08:58:54;2.22;;;1.15;;
56171;SDS011;42052;41.634;-0.946;2023-02-08T09:01:40;2.05;;;1.38;;
56171;SDS011;42052;41.634;-0.946;2023-02-08T09:04:27;1.48;;;1.15;;
56171;SDS011;42052;41.634;-0.946;2023-02-08T09:07:13;1.60;;;1.20;;
56171;SDS011;42052;41.634;-0.946;2023-02-08T09:09:59;2.22;;;1.40;;
56171;SDS011;42052;41.634;-0.946;2023-02-08T09:12:45;1.50;;;1.25;;
56171;SDS011;42052;41.634;-0.946;2023-02-08T09:15:31;2.33;;;1.33;;
56171;SDS011;42052;41.634;-0.946;2023-02-08T09:18:17;1.35;;;1.15;;
56171;SDS011;42052;41.634;-0.946;2023-02-08T09:21:04;2.05;;;1.23;;
56171;SDS011;42052;41.634;-0.946;2023-02-08T09:23:53;2.30;;;1.50;;
56171;SDS011;42052;41.634;-0.946;2023-02-08T09:26:40;2.85;;;1.40;;
56171;SDS011;42052;41.634;-0.946;2023-02-08T09:29:26;1.70;;;1.30;;
56171;SDS011;42052;41.634;-0.946;2023-02-08T09:32:14;1.88;;;1.50;;
56171;SDS011;42052;41.634;-0.946;2023-02-08T09:35:00;2.03;;;1.52;;
56171;SDS011;42052;41.634;-0.946;2023-02-08T09:37:47;2.10;;;1.45;;
56171;SDS011;42052;41.634;-0.946;2023-02-08T09:40:45;2.13;;;1.60;;
56171;SDS011;42052;41.634;-0.946;2023-02-08T09:46:28;1.88;;;1.42;;
56171;SDS011;42052;41.634;-0.946;2023-02-08T09:49:22;2.63;;;1.67;;
56171;SDS011;42052;41.634;-0.946;2023-02-08T09:52:12;2.45;;;1.50;;
56171;SDS011;42052;41.634;-0.946;2023-02-08T09:55:04;2.85;;;1.70;;
56171;SDS011;42052;41.634;-0.946;2023-02-08T09:58:12;2.45;;;1.70;;
56171;SDS011;42052;41.634;-0.946;2023-02-08T10:01:18;2.08;;;1.85;;
56171;SDS011;42052;41.634;-0.946;2023-02-08T10:04:13;2.58;;;1.38;;
56171;SDS011;42052;41.634;-0.946;2023-02-08T10:07:09;2.08;;;1.60;;
56171;SDS011;42052;41.634;-0.946;2023-02-08T10:09:57;2.67;;;1.80;;
56171;SDS011;42052;41.634;-0.946;2023-02-08T10:12:49;2.47;;;1.80;;
56171;SDS011;42052;41.634;-0.946;2023-02-08T10:19:37;3.13;;;1.80;;
56171;SDS011;42052;41.634;-0.946;2023-02-08T10:28:47;4.18;;;1.70;;
56171;SDS011;42052;41.634;-0.946;2023-02-08T10:35:11;2.60;;;1.70;;
56171;SDS011;42052;41.634;-0.946;2023-02-08T10:41:07;1.70;;;1.60;;
56171;SDS011;42052;41.634;-0.946;2023-02-08T10:44:17;3.70;;;1.70;;
56171;SDS011;42052;41.634;-0.946;2023-02-08T10:47:24;3.67;;;1.95;;
56171;SDS011;42052;41.634;-0.946;2023-02-08T10:53:21;3.75;;;1.98;;
56171;SDS011;42052;41.634;-0.946;2023-02-08T10:59:18;4.10;;;1.90;;
56171;SDS011;42052;41.634;-0.946;2023-02-08T11:02:14;1.95;;;1.70;;
56171;SDS011;42052;41.634;-0.946;2023-02-08T11:05:14;2.33;;;1.80;;
56171;SDS011;42052;41.634;-0.946;2023-02-08T11:08:10;4.07;;;2.20;;
56171;SDS011;42052;41.634;-0.946;2023-02-08T11:11:05;2.72;;;2.15;;
56171;SDS011;42052;41.634;-0.946;2023-02-08T11:13:53;2.92;;;2.00;;
56171;SDS011;42052;41.634;-0.946;2023-02-08T11:17:21;2.85;;;2.15;;
56171;SDS011;42052;41.634;-0.946;2023-02-08T11:20:18;2.85;;;2.10;;
56171;SDS011;42052;41.634;-0.946;2023-02-08T11:23:28;3.47;;;1.90;;
56171;SDS011;42052;41.634;-0.946;2023-02-08T11:29:12;3.90;;;2.42;;
56171;SDS011;42052;41.634;-0.946;2023-02-08T11:32:17;3.40;;;2.40;;
56171;SDS011;42052;41.634;-0.946;2023-02-08T11:38:06;3.20;;;2.35;;
56171;SDS011;42052;41.634;-0.946;2023-02-08T11:41:03;4.97;;;2.30;;
56171;SDS011;42052;41.634;-0.946;2023-02-08T11:44:03;3.13;;;2.10;;
56171;SDS011;42052;41.634;-0.946;2023-02-08T11:46:51;4.28;;;2.17;;
56171;SDS011;42052;41.634;-0.946;2023-02-08T11:49:40;3.47;;;2.30;;
56171;SDS011;42052;41.634;-0.946;2023-02-08T11:55:23;5.00;;;2.58;;
56171;SDS011;42052;41.634;-0.946;2023-02-08T12:01:04;3.83;;;2.40;;
56171;SDS011;42052;41.634;-0.946;2023-02-08T12:04:02;2.80;;;2.03;;
56171;SDS011;42052;41.634;-0.946;2023-02-08T12:16:31;5.03;;;2.30;;
56171;SDS011;42052;41.634;-0.946;2023-02-08T12:22:47;12.50;;;2.88;;
56171;SDS011;42052;41.634;-0.946;2023-02-08T12:44:47;5.40;;;2.53;;
56171;SDS011;42052;41.634;-0.946;2023-02-08T12:51:03;8.27;;;2.70;;
56171;SDS011;42052;41.634;-0.946;2023-02-08T12:54:12;4.97;;;2.50;;
56171;SDS011;42052;41.634;-0.946;2023-02-08T12:57:02;7.05;;;2.95;;
56171;SDS011;42052;41.634;-0.946;2023-02-08T13:02:45;5.38;;;2.70;;
56171;SDS011;42052;41.634;-0.946;2023-02-08T13:05:53;5.05;;;2.63;;
56171;SDS011;42052;41.634;-0.946;2023-02-08T13:08:40;9.63;;;3.00;;
56171;SDS011;42052;41.634;-0.946;2023-02-08T13:17:21;8.00;;;3.15;;
56171;SDS011;42052;41.634;-0.946;2023-02-08T13:29:16;5.10;;;3.05;;
56171;SDS011;42052;41.634;-0.946;2023-02-08T13:32:06;7.50;;;2.60;;
56171;SDS011;42052;41.634;-0.946;2023-02-08T13:34:57;6.88;;;2.58;;
56171;SDS011;42052;41.634;-0.946;2023-02-08T13:38:05;7.22;;;2.70;;
56171;SDS011;42052;41.634;-0.946;2023-02-08T13:41:06;7.20;;;2.63;;
56171;SDS011;42052;41.634;-0.946;2023-02-08T13:44:06;4.97;;;2.50;;
56171;SDS011;42052;41.634;-0.946;2023-02-08T13:47:03;6.72;;;2.90;;
56171;SDS011;42052;41.634;-0.946;2023-02-08T13:49:54;5.07;;;2.80;;
56171;SDS011;42052;41.634;-0.946;2023-02-08T13:52:45;6.85;;;2.90;;
56171;SDS011;42052;41.634;-0.946;2023-02-08T13:55:43;9.10;;;2.70;;
56171;SDS011;42052;41.634;-0.946;2023-02-08T14:01:34;6.15;;;2.95;;
56171;SDS011;42052;41.634;-0.946;2023-02-08T14:04:26;7.03;;;3.00;;
56171;SDS011;42052;41.634;-0.946;2023-02-08T14:10:38;5.50;;;2.47;;
56171;SDS011;42052;41.634;-0.946;2023-02-08T14:13:28;6.05;;;2.88;;
56171;SDS011;42052;41.634;-0.946;2023-02-08T14:16:35;5.65;;;2.90;;
56171;SDS011;42052;41.634;-0.946;2023-02-08T14:19:42;5.55;;;2.60;;
56171;SDS011;42052;41.634;-0.946;2023-02-08T14:22:35;8.23;;;3.10;;
56171;SDS011;42052;41.634;-0.946;2023-02-08T14:25:42;6.45;;;3.05;;
56171;SDS011;42052;41.634;-0.946;2023-02-08T14:28:33;5.65;;;2.60;;
56171;SDS011;42052;41.634;-0.946;2023-02-08T14:31:35;3.38;;;2.38;;
56171;SDS011;42052;41.634;-0.946;2023-02-08T14:34:26;4.18;;;2.65;;
56171;SDS011;42052;41.634;-0.946;2023-02-08T14:49:23;4.72;;;2.78;;
56171;SDS011;42052;41.634;-0.946;2023-02-08T14:52:19;4.85;;;2.78;;
56171;SDS011;42052;41.634;-0.946;2023-02-08T14:55:15;4.63;;;2.63;;
56171;SDS011;42052;41.634;-0.946;2023-02-08T14:58:06;5.72;;;2.90;;
56171;SDS011;42052;41.634;-0.946;2023-02-08T15:00:58;4.13;;;2.80;;
56171;SDS011;42052;41.634;-0.946;2023-02-08T15:03:49;4.60;;;2.70;;
56171;SDS011;42052;41.634;-0.946;2023-02-08T15:09:25;4.25;;;2.60;;
56171;SDS011;42052;41.634;-0.946;2023-02-08T15:15:23;3.90;;;2.60;;
56171;SDS011;42052;41.634;-0.946;2023-02-08T15:18:15;4.75;;;2.70;;
56171;SDS011;42052;41.634;-0.946;2023-02-08T15:21:06;3.95;;;2.50;;
56171;SDS011;42052;41.634;-0.946;2023-02-08T15:24:04;2.88;;;2.20;;
56171;SDS011;42052;41.634;-0.946;2023-02-08T15:27:01;5.45;;;2.47;;
56171;SDS011;42052;41.634;-0.946;2023-02-08T15:29:48;4.82;;;2.47;;
56171;SDS011;42052;41.634;-0.946;2023-02-08T15:32:34;4.72;;;2.50;;
56171;SDS011;42052;41.634;-0.946;2023-02-08T15:35:21;4.57;;;2.40;;
56171;SDS011;42052;41.634;-0.946;2023-02-08T15:38:14;3.72;;;2.20;;
56171;SDS011;42052;41.634;-0.946;2023-02-08T15:44:19;3.22;;;2.20;;
56171;SDS011;42052;41.634;-0.946;2023-02-08T15:47:19;4.38;;;2.22;;
56171;SDS011;42052;41.634;-0.946;2023-02-08T15:50:16;3.67;;;2.30;;
56171;SDS011;42052;41.634;-0.946;2023-02-08T15:53:05;2.72;;;2.15;;
56171;SDS011;42052;41.634;-0.946;2023-02-08T15:55:59;4.50;;;2.38;;
56171;SDS011;42052;41.634;-0.946;2023-02-08T15:58:51;4.50;;;2.58;;
56171;SDS011;42052;41.634;-0.946;2023-02-08T16:01:43;3.38;;;2.38;;
56171;SDS011;42052;41.634;-0.946;2023-02-08T16:04:40;3.28;;;2.10;;
56171;SDS011;42052;41.634;-0.946;2023-02-08T16:07:36;2.85;;;2.38;;
56171;SDS011;42052;41.634;-0.946;2023-02-08T16:19:04;2.88;;;2.17;;
56171;SDS011;42052;41.634;-0.946;2023-02-08T16:31:14;3.25;;;2.20;;
56171;SDS011;42052;41.634;-0.946;2023-02-08T16:34:06;3.50;;;2.15;;
56171;SDS011;42052;41.634;-0.946;2023-02-08T16:39:50;2.50;;;1.88;;
56171;SDS011;42052;41.634;-0.946;2023-02-08T16:42:39;4.05;;;2.45;;
56171;SDS011;42052;41.634;-0.946;2023-02-08T16:45:25;4.88;;;2.50;;
56171;SDS011;42052;41.634;-0.946;2023-02-08T16:48:28;2.80;;;1.88;;
56171;SDS011;42052;41.634;-0.946;2023-02-08T16:51:24;2.85;;;1.92;;
56171;SDS011;42052;41.634;-0.946;2023-02-08T16:54:18;3.72;;;1.88;;
56171;SDS011;42052;41.634;-0.946;2023-02-08T16:57:06;4.30;;;2.00;;
56171;SDS011;42052;41.634;-0.946;2023-02-08T16:59:53;2.88;;;1.92;;
56171;SDS011;42052;41.634;-0.946;2023-02-08T17:02:41;3.10;;;1.65;;
56171;SDS011;42052;41.634;-0.946;2023-02-08T17:05:27;2.20;;;1.90;;
56171;SDS011;42052;41.634;-0.946;2023-02-08T17:08:17;3.45;;;2.03;;
56171;SDS011;42052;41.634;-0.946;2023-02-08T17:11:04;3.03;;;2.08;;
56171;SDS011;42052;41.634;-0.946;2023-02-08T17:13:53;3.97;;;1.80;;
56171;SDS011;42052;41.634;-0.946;2023-02-08T17:16:40;2.60;;;1.92;;
56171;SDS011;42052;41.634;-0.946;2023-02-08T17:19:26;4.13;;;1.90;;
56171;SDS011;42052;41.634;-0.946;2023-02-08T17:22:12;2.60;;;1.73;;
56171;SDS011;42052;41.634;-0.946;2023-02-08T17:24:58;1.85;;;1.60;;
56171;SDS011;42052;41.634;-0.946;2023-02-08T17:30:36;3.97;;;1.85;;
56171;SDS011;42052;41.634;-0.946;2023-02-08T17:33:23;4.18;;;1.70;;
56171;SDS011;42052;41.634;-0.946;2023-02-08T17:36:11;4.75;;;1.95;;
56171;SDS011;42052;41.634;-0.946;2023-02-08T17:38:59;2.40;;;1.73;;
56171;SDS011;42052;41.634;-0.946;2023-02-08T17:41:46;3.30;;;1.73;;
56171;SDS011;42052;41.634;-0.946;2023-02-08T17:44:32;2.38;;;1.75;;
56171;SDS011;42052;41.634;-0.946;2023-02-08T17:47:18;2.55;;;1.50;;
56171;SDS011;42052;41.634;-0.946;2023-02-08T17:50:04;2.63;;;1.67;;
56171;SDS011;42052;41.634;-0.946;2023-02-08T17:52:51;2.83;;;1.58;;
56171;SDS011;42052;41.634;-0.946;2023-02-08T17:55:41;2.80;;;1.90;;
56171;SDS011;42052;41.634;-0.946;2023-02-08T17:58:30;3.30;;;1.45;;
56171;SDS011;42052;41.634;-0.946;2023-02-08T18:01:21;2.65;;;1.60;;
56171;SDS011;42052;41.634;-0.946;2023-02-08T18:04:09;2.35;;;1.50;;
56171;SDS011;42052;41.634;-0.946;2023-02-08T18:06:57;1.70;;;1.48;;
56171;SDS011;42052;41.634;-0.946;2023-02-08T18:09:43;2.70;;;1.40;;
56171;SDS011;42052;41.634;-0.946;2023-02-08T18:12:29;2.95;;;1.50;;
56171;SDS011;42052;41.634;-0.946;2023-02-08T18:15:17;2.28;;;1.60;;
56171;SDS011;42052;41.634;-0.946;2023-02-08T18:18:18;3.03;;;1.80;;
56171;SDS011;42052;41.634;-0.946;2023-02-08T18:21:08;2.42;;;1.50;;
56171;SDS011;42052;41.634;-0.946;2023-02-08T18:24:03;2.78;;;1.58;;
56171;SDS011;42052;41.634;-0.946;2023-02-08T18:26:49;2.10;;;1.50;;
56171;SDS011;42052;41.634;-0.946;2023-02-08T18:29:35;2.30;;;1.45;;
56171;SDS011;42052;41.634;-0.946;2023-02-08T18:32:21;3.25;;;1.50;;
56171;SDS011;42052;41.634;-0.946;2023-02-08T18:35:07;2.17;;;1.60;;
56171;SDS011;42052;41.634;-0.946;2023-02-08T18:37:53;2.47;;;1.50;;
56171;SDS011;42052;41.634;-0.946;2023-02-08T18:40:39;2.90;;;1.83;;
56171;SDS011;42052;41.634;-0.946;2023-02-08T18:43:26;3.30;;;1.60;;
56171;SDS011;42052;41.634;-0.946;2023-02-08T18:46:13;3.38;;;1.60;;
56171;SDS011;42052;41.634;-0.946;2023-02-08T18:49:02;3.97;;;1.73;;
56171;SDS011;42052;41.634;-0.946;2023-02-08T18:51:48;2.92;;;1.60;;
56171;SDS011;42052;41.634;-0.946;2023-02-08T18:54:35;2.50;;;1.65;;
56171;SDS011;42052;41.634;-0.946;2023-02-08T18:57:24;3.00;;;1.70;;
56171;SDS011;42052;41.634;-0.946;2023-02-08T19:00:11;3.45;;;1.60;;
56171;SDS011;42052;41.634;-0.946;2023-02-08T19:02:57;4.07;;;1.90;;
56171;SDS011;42052;41.634;-0.946;2023-02-08T19:05:43;1.90;;;1.40;;
56171;SDS011;42052;41.634;-0.946;2023-02-08T19:08:30;3.70;;;2.08;;
56171;SDS011;42052;41.634;-0.946;2023-02-08T19:11:17;2.33;;;1.70;;
56171;SDS011;42052;41.634;-0.946;2023-02-08T19:14:07;2.65;;;1.88;;
56171;SDS011;42052;41.634;-0.946;2023-02-08T19:16:55;2.35;;;1.85;;
56171;SDS011;42052;41.634;-0.946;2023-02-08T19:19:41;2.70;;;2.00;;
56171;SDS011;42052;41.634;-0.946;2023-02-08T19:22:27;3.38;;;2.10;;
56171;SDS011;42052;41.634;-0.946;2023-02-08T19:25:13;3.28;;;1.80;;
56171;SDS011;42052;41.634;-0.946;2023-02-08T19:27:59;3.85;;;2.20;;
56171;SDS011;42052;41.634;-0.946;2023-02-08T19:30:45;5.00;;;2.30;;
56171;SDS011;42052;41.634;-0.946;2023-02-08T19:33:31;2.03;;;1.65;;
56171;SDS011;42052;41.634;-0.946;2023-02-08T19:36:19;2.72;;;2.15;;
56171;SDS011;42052;41.634;-0.946;2023-02-08T19:39:07;3.03;;;2.05;;
56171;SDS011;42052;41.634;-0.946;2023-02-08T19:41:53;2.55;;;2.00;;
56171;SDS011;42052;41.634;-0.946;2023-02-08T19:44:39;2.08;;;1.73;;
56171;SDS011;42052;41.634;-0.946;2023-02-08T19:47:25;3.47;;;2.10;;
56171;SDS011;42052;41.634;-0.946;2023-02-08T19:50:12;2.97;;;1.95;;
56171;SDS011;42052;41.634;-0.946;2023-02-08T19:52:58;3.67;;;2.10;;
56171;SDS011;42052;41.634;-0.946;2023-02-08T19:55:52;2.70;;;1.90;;
56171;SDS011;42052;41.634;-0.946;2023-02-08T19:58:40;2.35;;;1.65;;
56171;SDS011;42052;41.634;-0.946;2023-02-08T20:01:26;3.22;;;1.90;;
56171;SDS011;42052;41.634;-0.946;2023-02-08T20:04:12;2.25;;;1.85;;
56171;SDS011;42052;41.634;-0.946;2023-02-08T20:06:59;2.88;;;1.80;;
56171;SDS011;42052;41.634;-0.946;2023-02-08T20:09:45;2.83;;;1.98;;
56171;SDS011;42052;41.634;-0.946;2023-02-08T20:12:31;4.00;;;1.88;;
56171;SDS011;42052;41.634;-0.946;2023-02-08T20:15:17;2.67;;;2.10;;
56171;SDS011;42052;41.634;-0.946;2023-02-08T20:18:04;3.50;;;2.38;;
56171;SDS011;42052;41.634;-0.946;2023-02-08T20:20:58;4.07;;;2.38;;
56171;SDS011;42052;41.634;-0.946;2023-02-08T20:23:48;3.20;;;2.40;;
56171;SDS011;42052;41.634;-0.946;2023-02-08T20:26:35;3.90;;;2.70;;
56171;SDS011;42052;41.634;-0.946;2023-02-08T20:29:24;4.93;;;2.70;;
56171;SDS011;42052;41.634;-0.946;2023-02-08T20:32:12;3.00;;;2.45;;
56171;SDS011;42052;41.634;-0.946;2023-02-08T20:34:58;3.95;;;2.53;;
56171;SDS011;42052;41.634;-0.946;2023-02-08T20:37:44;4.53;;;2.80;;
56171;SDS011;42052;41.634;-0.946;2023-02-08T20:40:32;4.43;;;3.05;;
56171;SDS011;42052;41.634;-0.946;2023-02-08T20:43:18;3.47;;;2.38;;
56171;SDS011;42052;41.634;-0.946;2023-02-08T20:46:06;3.55;;;2.50;;
56171;SDS011;42052;41.634;-0.946;2023-02-08T20:48:56;3.90;;;2.58;;
56171;SDS011;42052;41.634;-0.946;2023-02-08T20:51:43;2.50;;;2.20;;
56171;SDS011;42052;41.634;-0.946;2023-02-08T20:54:29;3.72;;;2.45;;
56171;SDS011;42052;41.634;-0.946;2023-02-08T20:57:15;3.35;;;2.50;;
56171;SDS011;42052;41.634;-0.946;2023-02-08T21:00:03;10.18;;;3.60;;
56171;SDS011;42052;41.634;-0.946;2023-02-08T21:02:50;7.88;;;2.90;;
56171;SDS011;42052;41.634;-0.946;2023-02-08T21:05:36;60.22;;;13.20;;
56171;SDS011;42052;41.634;-0.946;2023-02-08T21:08:22;38.92;;;10.50;;
56171;SDS011;42052;41.634;-0.946;2023-02-08T21:11:08;37.40;;;9.02;;
56171;SDS011;42052;41.634;-0.946;2023-02-08T21:13:56;32.40;;;8.40;;
56171;SDS011;42052;41.634;-0.946;2023-02-08T21:16:43;33.25;;;8.75;;
56171;SDS011;42052;41.634;-0.946;2023-02-08T21:19:32;34.63;;;8.65;;
56171;SDS011;42052;41.634;-0.946;2023-02-08T21:22:18;27.33;;;7.75;;
56171;SDS011;42052;41.634;-0.946;2023-02-08T21:25:05;29.08;;;8.40;;
56171;SDS011;42052;41.634;-0.946;2023-02-08T21:27:51;24.13;;;6.57;;
56171;SDS011;42052;41.634;-0.946;2023-02-08T21:30:37;21.17;;;6.57;;
56171;SDS011;42052;41.634;-0.946;2023-02-08T21:33:23;21.42;;;6.65;;
56171;SDS011;42052;41.634;-0.946;2023-02-08T21:36:11;21.40;;;6.78;;
56171;SDS011;42052;41.634;-0.946;2023-02-08T21:38:59;23.05;;;6.72;;
56171;SDS011;42052;41.634;-0.946;2023-02-08T21:41:45;18.58;;;6.20;;
56171;SDS011;42052;41.634;-0.946;2023-02-08T21:44:32;20.55;;;6.82;;
56171;SDS011;42052;41.634;-0.946;2023-02-08T21:47:19;18.35;;;5.93;;
56171;SDS011;42052;41.634;-0.946;2023-02-08T21:50:05;17.65;;;6.25;;
56171;SDS011;42052;41.634;-0.946;2023-02-08T21:53:11;18.10;;;6.05;;
56171;SDS011;42052;41.634;-0.946;2023-02-08T21:56:33;17.38;;;5.53;;
56171;SDS011;42052;41.634;-0.946;2023-02-08T21:59:19;14.77;;;5.22;;
56171;SDS011;42052;41.634;-0.946;2023-02-08T22:02:07;16.90;;;5.13;;
56171;SDS011;42052;41.634;-0.946;2023-02-08T22:04:57;16.73;;;5.53;;
56171;SDS011;42052;41.634;-0.946;2023-02-08T22:07:46;15.55;;;5.25;;
56171;SDS011;42052;41.634;-0.946;2023-02-08T22:10:36;15.95;;;5.30;;
56171;SDS011;42052;41.634;-0.946;2023-02-08T22:13:22;16.02;;;5.38;;
56171;SDS011;42052;41.634;-0.946;2023-02-08T22:16:08;13.00;;;5.28;;
56171;SDS011;42052;41.634;-0.946;2023-02-08T22:18:55;11.73;;;5.00;;
56171;SDS011;42052;41.634;-0.946;2023-02-08T22:21:41;14.00;;;4.88;;
56171;SDS011;42052;41.634;-0.946;2023-02-08T22:24:27;11.75;;;4.60;;
56171;SDS011;42052;41.634;-0.946;2023-02-08T22:27:13;10.80;;;4.82;;
56171;SDS011;42052;41.634;-0.946;2023-02-08T22:29:59;10.75;;;4.50;;
56171;SDS011;42052;41.634;-0.946;2023-02-08T22:32:46;13.77;;;4.60;;
56171;SDS011;42052;41.634;-0.946;2023-02-08T22:35:33;18.65;;;4.57;;
56171;SDS011;42052;41.634;-0.946;2023-02-08T22:38:19;11.30;;;4.28;;
56171;SDS011;42052;41.634;-0.946;2023-02-08T22:41:10;12.32;;;4.47;;
56171;SDS011;42052;41.634;-0.946;2023-02-08T22:43:57;9.73;;;4.20;;
56171;SDS011;42052;41.634;-0.946;2023-02-08T22:46:43;11.18;;;4.25;;
56171;SDS011;42052;41.634;-0.946;2023-02-08T22:49:29;9.05;;;3.95;;
56171;SDS011;42052;41.634;-0.946;2023-02-08T22:52:15;9.13;;;3.88;;
56171;SDS011;42052;41.634;-0.946;2023-02-08T22:55:02;10.82;;;3.80;;
56171;SDS011;42052;41.634;-0.946;2023-02-08T22:57:49;10.48;;;4.00;;
56171;SDS011;42052;41.634;-0.946;2023-02-08T23:00:35;7.95;;;3.63;;
56171;SDS011;42052;41.634;-0.946;2023-02-08T23:03:21;7.65;;;3.55;;
56171;SDS011;42052;41.634;-0.946;2023-02-08T23:06:08;6.45;;;3.60;;
56171;SDS011;42052;41.634;-0.946;2023-02-08T23:08:58;7.35;;;3.63;;
56171;SDS011;42052;41.634;-0.946;2023-02-08T23:11:44;9.20;;;3.40;;
56171;SDS011;42052;41.634;-0.946;2023-02-08T23:14:30;8.23;;;3.58;;
56171;SDS011;42052;41.634;-0.946;2023-02-08T23:17:18;6.13;;;3.40;;
56171;SDS011;42052;41.634;-0.946;2023-02-08T23:20:04;7.70;;;3.50;;
56171;SDS011;42052;41.634;-0.946;2023-02-08T23:22:50;9.07;;;3.30;;
56171;SDS011;42052;41.634;-0.946;2023-02-08T23:25:37;8.27;;;3.70;;
56171;SDS011;42052;41.634;-0.946;2023-02-08T23:28:26;5.60;;;3.25;;
56171;SDS011;42052;41.634;-0.946;2023-02-08T23:31:13;7.63;;;3.58;;
56171;SDS011;42052;41.634;-0.946;2023-02-08T23:33:59;5.18;;;3.05;;
56171;SDS011;42052;41.634;-0.946;2023-02-08T23:36:46;6.72;;;3.35;;
56171;SDS011;42052;41.634;-0.946;2023-02-08T23:39:32;5.72;;;3.08;;
56171;SDS011;42052;41.634;-0.946;2023-02-08T23:42:18;6.60;;;3.38;;
56171;SDS011;42052;41.634;-0.946;2023-02-08T23:45:10;6.88;;;3.17;;
56171;SDS011;42052;41.634;-0.946;2023-02-08T23:47:56;7.28;;;3.30;;
56171;SDS011;42052;41.634;-0.946;2023-02-08T23:50:42;5.75;;;3.45;;
56171;SDS011;42052;41.634;-0.946;2023-02-08T23:53:29;5.20;;;3.30;;
56171;SDS011;42052;41.634;-0.946;2023-02-08T23:56:20;6.97;;;3.38;;
56171;SDS011;42052;41.634;-0.946;2023-02-08T23:59:08;6.50;;;3.33;;
